Etusivu
METAR-TAF:

METAR-TAF

Lentoasemat :

Volgograd, Venäjä

Leveyspiiri: 48-47N, Pituuspiiri: 044-22E, korkeus merenpinnasta: 145 m

Tämänhetkinen sää

Tämä raportti tehtiin 23 minuuttia sitten, kello 02.00 UTC
Tuuli 4 kn lännestä/lounaasta
Lämpötila 11°C
Kosteus 76%
Ilmanpaine 1012 hPa
Näkyvyys 10 km tai enemmän
ei pilviä alle 1500 m:ssä eikä cumulonimbus-pilviä

METAR: URWW 270200Z 25002MPS CAVOK 11/07 Q1012 R06/010070 NOSIG

Aika: 05:23 (02:23 UTC)

Sääennuste

Tämä raportti tehtiin 3 tuntia ja 25 minuuttia sitten, kello 22.58 UTC
Ennuste voimassa 27. päivästä klo 00 UTC - 27. päivään klo 09 UTC
Tuuli 6 kn lännestä puuskistuen 16 kn:hen
Näkyvyys 10 km tai enemmän
Hajonneita pilviä 2000 ft:n korkeudessa
Ajoittain
27. päivästä klo 00 UTC - 27. päivään klo 06 UTC
Näkyvyys: 3100 m
Hajonneita pilviä 1100 ft:n korkeudessa
utua

TAF: URWW 262258Z 2700/2709 28003G08MPS 9999 BKN020 TEMPO 2700/2706 3100 BR BKN011

Säähavainnot ja -ennusteet yli 4000 lentoasemalta (METAR- ja TAF-raportit).

Käytössä olevat sääasemat on merkitty karttaan keltaisilla ja punaisilla pisteillä.

Aseta hiiri pisteen päälle nähdäksesi sääaseman nimen.

Klikkaa sitten nähdäksesi säähavainnot ja -ennusteet.

Kartan vaihtaminen: klikkaa mustalla rastilla varustettuja vihreitä pisteitä, niin voit zoomata sisään; viivalla varustettua vihreää pistettä, niin voit zoomata ulos tai vihreitä nuolia, niin pääset viereisille kartoille.


METAR-TAF: